^^
Station Historical Data
Daily Summary for January 15, 2018 Units:  English    Metric   Both
« Previous Day
Next Day »
Daily Weekly Monthly Yearly Custom
  High: Low: Average:
Temperature: TemperatureF °F 45.0 °F 51.9 °F
Dew Point: DewpointF °F 40.7 °F 42.4 °F
Humidity: Humidity% 44% 71%
Wind Speed: WindSpeedMPHmph 0.0mph 0mph
Wind Gust: WindSpeedGustMPHmph - -
Wind- - North
Pressure: PressureIn in 30.29 in -
Precipitation: 0.00 in    
Historical Graphs
 
 
Tabular Data for January 15, 2018
Time Temperature Dew Point Pressure Wind Wind Speed Wind Gust Humidity Rainfall Rate (Hourly) solar Conditions
TemperatureF °F DewpointF °F PressureIn in Calm     Humidity% HourlyPrecipIn in SolarRadiationWatts/m^2 W/m2 Conditions
00:00 46.9 °F 42.0 °F 30.35 in Calm     83% 0.00 in 0.0 W/m2 BKN
00:10 46.9 °F 43.0 °F 30.35 in Calm     86% 0.00 in 0.0 W/m2 OVC
00:15 46.9 °F 43.0 °F 30.35 in Calm     86% 0.00 in 0.0 W/m2 OVC
00:20 46.9 °F 43.0 °F 30.35 in Calm     86% 0.00 in 0.0 W/m2 OVC
00:30 46.9 °F 43.0 °F 30.35 in Calm     86% 0.00 in 0.0 W/m2 OVC
00:40 46.9 °F 43.0 °F 30.35 in Calm     86% 0.00 in 0.0 W/m2 OVC
00:45 46.9 °F 43.0 °F 30.35 in Calm     86% 0.00 in 0.0 W/m2 OVC
00:55 46.9 °F 43.0 °F 30.35 in Calm     86% 0.00 in 0.0 W/m2 OVC
01:00 46.9 °F 43.0 °F 30.35 in Calm     86% 0.00 in 0.0 W/m2 OVC
01:15 46.9 °F 43.0 °F 30.33 in Calm     86% 0.00 in 0.0 W/m2 CLR
01:25 46.9 °F 43.0 °F 30.33 in Calm     86% 0.00 in 0.0 W/m2 CLR
01:30 46.9 °F 43.0 °F 30.33 in Calm     86% 0.00 in 0.0 W/m2 CLR
01:40 46.9 °F 43.0 °F 30.33 in Calm     86% 0.00 in 0.0 W/m2 CLR
01:45 46.9 °F 43.0 °F 30.33 in Calm     86% 0.00 in 0.0 W/m2 CLR
01:55 46.9 °F 43.0 °F 30.33 in Calm     86% 0.00 in 0.0 W/m2 CLR
02:00 46.9 °F 43.0 °F 30.33 in Calm     86% 0.00 in 0.0 W/m2 CLR
02:10 46.0 °F 41.8 °F 30.33 in Calm     85% 0.00 in 0.0 W/m2 BKN
02:15 46.0 °F 41.8 °F 30.33 in Calm     85% 0.00 in 0.0 W/m2 BKN
02:25 46.0 °F 41.8 °F 30.33 in Calm     85% 0.00 in 0.0 W/m2 BKN
02:30 46.0 °F 41.8 °F 30.33 in Calm     85% 0.00 in 0.0 W/m2 BKN
02:40 46.0 °F 41.8 °F 30.33 in Calm     85% 0.00 in 0.0 W/m2 BKN
02:45 46.0 °F 41.8 °F 30.33 in Calm     85% 0.00 in 0.0 W/m2 BKN
02:55 46.0 °F 41.8 °F 30.33 in Calm     85% 0.00 in 0.0 W/m2 BKN
03:00 46.0 °F 41.8 °F 30.33 in Calm     85% 0.00 in 0.0 W/m2 BKN
03:10 46.9 °F 40.8 °F 30.33 in Calm     79% 0.00 in 0.0 W/m2 OVC
03:15 46.9 °F 40.8 °F 30.33 in Calm     79% 0.00 in 0.0 W/m2 OVC
03:30 46.9 °F 40.8 °F 30.33 in Calm     79% 0.00 in 0.0 W/m2 OVC
03:40 46.0 °F 41.8 °F 30.33 in Calm     85% 0.00 in 0.0 W/m2 OVC
03:45 46.0 °F 41.8 °F 30.33 in Calm     85% 0.00 in 0.0 W/m2 OVC
03:55 46.0 °F 40.9 °F 30.32 in Calm     82% 0.00 in 0.0 W/m2 SCT
04:00 46.0 °F 40.9 °F 30.32 in Calm     82% 0.00 in 0.0 W/m2 SCT
04:10 46.0 °F 40.9 °F 30.33 in Calm     82% 0.00 in 0.0 W/m2 SCT
04:15 46.0 °F 40.9 °F 30.33 in Calm     82% 0.00 in 0.0 W/m2 SCT
04:25 46.0 °F 40.9 °F 30.33 in Calm     82% 0.00 in 0.0 W/m2 SCT
04:30 46.0 °F 40.9 °F 30.33 in Calm     82% 0.00 in 0.0 W/m2 SCT
04:40 46.0 °F 40.9 °F 30.33 in Calm     82% 0.00 in 0.0 W/m2 SCT
04:45 46.0 °F 40.9 °F 30.33 in Calm     82% 0.00 in 0.0 W/m2 SCT
04:55 46.0 °F 40.9 °F 30.33 in Calm     82% 0.00 in 0.0 W/m2 SCT
05:00 46.0 °F 40.9 °F 30.33 in Calm     82% 0.00 in 0.0 W/m2 SCT
05:10 46.0 °F 40.9 °F 30.32 in Calm     82% 0.00 in 0.0 W/m2 FEW
05:15 46.0 °F 40.9 °F 30.32 in Calm     82% 0.00 in 0.0 W/m2 FEW
05:25 46.0 °F 40.9 °F 30.32 in Calm     82% 0.00 in 0.0 W/m2 FEW
05:30 46.0 °F 40.9 °F 30.32 in Calm     82% 0.00 in 0.0 W/m2 FEW
05:40 46.0 °F 40.9 °F 30.32 in Calm     82% 0.00 in 0.0 W/m2 FEW
05:45 46.0 °F 40.9 °F 30.32 in Calm     82% 0.00 in 0.0 W/m2 FEW
05:50 46.0 °F 40.9 °F 30.32 in Calm     82% 0.00 in 0.0 W/m2 FEW
06:00 46.0 °F 40.9 °F 30.32 in Calm     82% 0.00 in 0.0 W/m2 FEW
06:10 45.0 °F 40.7 °F 30.32 in Calm     85% 0.00 in 0.0 W/m2 CLR
06:15 45.0 °F 40.7 °F 30.32 in Calm     85% 0.00 in 0.0 W/m2 CLR
06:25 45.0 °F 40.7 °F 30.32 in Calm     85% 0.00 in 0.0 W/m2 CLR
06:30 45.0 °F 40.7 °F 30.32 in Calm     85% 0.00 in 0.0 W/m2 CLR
06:40 45.0 °F 40.7 °F 30.32 in Calm     85% 0.00 in 0.0 W/m2 CLR
06:45 45.0 °F 40.7 °F 30.32 in Calm     85% 0.00 in 0.0 W/m2 CLR
06:55 45.0 °F 40.7 °F 30.32 in Calm     85% 0.00 in 0.0 W/m2 CLR
07:00 45.0 °F 40.7 °F 30.32 in Calm     85% 0.00 in 0.0 W/m2 CLR
07:10 45.0 °F 40.7 °F 30.34 in Calm     85% 0.00 in 0.0 W/m2 FEW
07:15 45.0 °F 40.7 °F 30.34 in Calm     85% 0.00 in 0.0 W/m2 FEW
07:25 45.0 °F 40.7 °F 30.34 in Calm     85% 0.00 in 0.0 W/m2 FEW
07:30 45.0 °F 40.7 °F 30.34 in Calm     85% 0.00 in 0.0 W/m2 FEW
07:40 45.0 °F 40.7 °F 30.34 in Calm     85% 0.00 in 0.0 W/m2 FEW
07:45 45.0 °F 40.7 °F 30.34 in Calm     85% 0.00 in 0.0 W/m2 FEW
07:55 45.0 °F 40.7 °F 30.34 in Calm     85% 0.00 in 0.0 W/m2 FEW
08:00 45.0 °F 40.7 °F 30.34 in Calm     85% 0.00 in 0.0 W/m2 FEW
08:10 46.0 °F 42.7 °F 30.35 in Calm     88% 0.00 in 0.0 W/m2 CLR
08:15 46.0 °F 42.7 °F 30.35 in Calm     88% 0.00 in 0.0 W/m2 CLR
08:25 46.0 °F 42.7 °F 30.35 in Calm     88% 0.00 in 0.0 W/m2 CLR
08:30 46.0 °F 42.7 °F 30.35 in Calm     88% 0.00 in 0.0 W/m2 CLR
08:45 46.0 °F 42.7 °F 30.35 in Calm     88% 0.00 in 0.0 W/m2 CLR
08:55 46.0 °F 42.7 °F 30.35 in Calm     88% 0.00 in 0.0 W/m2 CLR
09:00 46.0 °F 42.7 °F 30.35 in Calm     88% 0.00 in 0.0 W/m2 CLR
09:10 51.1 °F 43.8 °F 30.37 in Calm     76% 0.00 in 0.0 W/m2 CLR
09:25 51.1 °F 43.8 °F 30.37 in Calm     76% 0.00 in 0.0 W/m2 CLR
09:30 51.1 °F 43.8 °F 30.37 in Calm     76% 0.00 in 0.0 W/m2 CLR
09:40 51.1 °F 43.8 °F 30.37 in Calm     76% 0.00 in 0.0 W/m2 CLR
09:45 51.1 °F 43.8 °F 30.37 in Calm     76% 0.00 in 0.0 W/m2 CLR
09:55 51.1 °F 43.8 °F 30.37 in Calm     76% 0.00 in 0.0 W/m2 CLR
10:00 51.1 °F 43.8 °F 30.37 in Calm     76% 0.00 in 0.0 W/m2 CLR
10:15 55.0 °F 44.7 °F 30.38 in Calm     68% 0.00 in 0.0 W/m2 CLR
10:25 55.0 °F 44.7 °F 30.38 in Calm     68% 0.00 in 0.0 W/m2 CLR
10:30 55.0 °F 44.7 °F 30.38 in Calm     68% 0.00 in 0.0 W/m2 CLR
10:40 55.0 °F 44.7 °F 30.38 in Calm     68% 0.00 in 0.0 W/m2 CLR
10:45 55.0 °F 44.7 °F 30.38 in Calm     68% 0.00 in 0.0 W/m2 CLR
10:55 55.0 °F 44.7 °F 30.38 in Calm     68% 0.00 in 0.0 W/m2 CLR
11:00 55.0 °F 44.7 °F 30.38 in Calm     68% 0.00 in 0.0 W/m2 CLR
11:10 59.0 °F 44.7 °F 30.39 in Calm     59% 0.00 in 0.0 W/m2 CLR
11:15 59.0 °F 44.7 °F 30.39 in Calm     59% 0.00 in 0.0 W/m2 CLR
11:25 59.0 °F 44.7 °F 30.39 in Calm     59% 0.00 in 0.0 W/m2 CLR
11:30 59.0 °F 44.7 °F 30.39 in Calm     59% 0.00 in 0.0 W/m2 CLR
11:40 59.0 °F 44.7 °F 30.39 in Calm     59% 0.00 in 0.0 W/m2 CLR
11:45 59.0 °F 44.7 °F 30.39 in Calm     59% 0.00 in 0.0 W/m2 CLR
11:55 59.0 °F 44.7 °F 30.39 in Calm     59% 0.00 in 0.0 W/m2 CLR
12:00 59.0 °F 44.7 °F 30.39 in Calm     59% 0.00 in 0.0 W/m2 CLR
12:10 62.1 °F 45.7 °F 30.37 in Calm     55% 0.00 in 0.0 W/m2 CLR
12:15 62.1 °F 45.7 °F 30.37 in Calm     55% 0.00 in 0.0 W/m2 CLR
12:25 62.1 °F 45.7 °F 30.37 in Calm     55% 0.00 in 0.0 W/m2 CLR
12:30 62.1 °F 45.7 °F 30.37 in Calm     55% 0.00 in 0.0 W/m2 CLR
12:40 62.1 °F 45.7 °F 30.37 in Calm     55% 0.00 in 0.0 W/m2 CLR
12:45 62.1 °F 45.7 °F 30.37 in Calm     55% 0.00 in 0.0 W/m2 CLR
13:00 62.1 °F 45.7 °F 30.37 in Calm     55% 0.00 in 0.0 W/m2 CLR
13:10 64.9 °F 44.8 °F 30.34 in Calm     48% 0.00 in 0.0 W/m2 CLR
13:15 64.9 °F 44.8 °F 30.34 in Calm     48% 0.00 in 0.0 W/m2 CLR
13:25 64.9 °F 44.8 °F 30.34 in Calm     48% 0.00 in 0.0 W/m2 CLR
13:30 64.9 °F 44.8 °F 30.34 in Calm     48% 0.00 in 0.0 W/m2 CLR
13:40 64.9 °F 44.8 °F 30.34 in Calm     48% 0.00 in 0.0 W/m2 CLR
13:45 64.9 °F 44.8 °F 30.34 in Calm     48% 0.00 in 0.0 W/m2 CLR
13:55 64.9 °F 44.8 °F 30.34 in Calm     48% 0.00 in 0.0 W/m2 CLR
14:00 64.9 °F 44.8 °F 30.34 in Calm     48% 0.00 in 0.0 W/m2 CLR
14:15 64.9 °F 42.5 °F 30.30 in Calm     44% 0.00 in 0.0 W/m2 CLR
14:25 64.9 °F 42.5 °F 30.30 in Calm     44% 0.00 in 0.0 W/m2 CLR
14:30 64.9 °F 42.5 °F 30.30 in Calm     44% 0.00 in 0.0 W/m2 CLR
14:40 64.9 °F 42.5 °F 30.30 in Calm     44% 0.00 in 0.0 W/m2 CLR
14:45 64.9 °F 42.5 °F 30.30 in Calm     44% 0.00 in 0.0 W/m2 CLR
14:55 64.9 °F 42.5 °F 30.30 in Calm     44% 0.00 in 0.0 W/m2 CLR
15:00 64.9 °F 42.5 °F 30.30 in Calm     44% 0.00 in 0.0 W/m2 CLR
15:10 64.0 °F 42.8 °F 30.29 in Calm     46% 0.00 in 0.0 W/m2 CLR
15:15 64.0 °F 42.8 °F 30.29 in Calm     46% 0.00 in 0.0 W/m2 CLR
15:25 64.0 °F 42.8 °F 30.29 in Calm     46% 0.00 in 0.0 W/m2 CLR
15:30 64.0 °F 42.8 °F 30.29 in Calm     46% 0.00 in 0.0 W/m2 CLR
15:40 64.0 °F 42.8 °F 30.29 in Calm     46% 0.00 in 0.0 W/m2 CLR
15:50 64.0 °F 42.8 °F 30.29 in Calm     46% 0.00 in 0.0 W/m2 CLR
15:55 64.0 °F 42.8 °F 30.29 in Calm     46% 0.00 in 0.0 W/m2 CLR
16:05 62.1 °F 43.7 °F 30.30 in Calm     51% 0.00 in 0.0 W/m2 CLR
16:10 62.1 °F 43.7 °F 30.30 in Calm     51% 0.00 in 0.0 W/m2 CLR
16:20 62.1 °F 43.7 °F 30.30 in Calm     51% 0.00 in 0.0 W/m2 CLR
16:40 62.1 °F 43.7 °F 30.30 in Calm     51% 0.00 in 0.0 W/m2 CLR
16:45 62.1 °F 43.7 °F 30.30 in Calm     51% 0.00 in 0.0 W/m2 CLR
16:50 62.1 °F 43.7 °F 30.30 in Calm     51% 0.00 in 0.0 W/m2 CLR
16:55 62.1 °F 43.7 °F 30.30 in Calm     51% 0.00 in 0.0 W/m2 CLR
17:00 62.1 °F 43.7 °F 30.30 in Calm     51% 0.00 in 0.0 W/m2 CLR
17:15 60.1 °F 41.9 °F 30.32 in Calm     51% 0.00 in 0.0 W/m2 CLR
17:25 60.1 °F 41.9 °F 30.32 in Calm     51% 0.00 in 0.0 W/m2 CLR
17:30 60.1 °F 41.9 °F 30.32 in Calm     51% 0.00 in 0.0 W/m2 CLR
17:40 60.1 °F 41.9 °F 30.32 in Calm     51% 0.00 in 0.0 W/m2 CLR
18:00 60.1 °F 41.9 °F 30.32 in Calm     51% 0.00 in 0.0 W/m2 CLR
18:10 55.0 °F 41.8 °F 30.34 in Calm     61% 0.00 in 0.0 W/m2 CLR
18:15 55.0 °F 41.8 °F 30.34 in Calm     61% 0.00 in 0.0 W/m2 CLR
18:25 55.0 °F 41.8 °F 30.34 in Calm     61% 0.00 in 0.0 W/m2 CLR
18:30 55.0 °F 41.8 °F 30.34 in Calm     61% 0.00 in 0.0 W/m2 CLR
18:40 55.0 °F 41.8 °F 30.34 in Calm     61% 0.00 in 0.0 W/m2 CLR
18:45 55.0 °F 41.8 °F 30.34 in Calm     61% 0.00 in 0.0 W/m2 CLR
18:50 55.0 °F 41.8 °F 30.34 in Calm     61% 0.00 in 0.0 W/m2 CLR
19:00 55.0 °F 41.8 °F 30.34 in Calm     61% 0.00 in 0.0 W/m2 CLR
19:10 52.0 °F 42.9 °F 30.36 in Calm     71% 0.00 in 0.0 W/m2 CLR
19:15 52.0 °F 42.9 °F 30.36 in Calm     71% 0.00 in 0.0 W/m2 CLR
19:25 52.0 °F 42.9 °F 30.36 in Calm     71% 0.00 in 0.0 W/m2 CLR
19:30 52.0 °F 42.9 °F 30.36 in Calm     71% 0.00 in 0.0 W/m2 CLR
19:45 52.0 °F 42.9 °F 30.36 in Calm     71% 0.00 in 0.0 W/m2 CLR
19:55 52.0 °F 42.9 °F 30.36 in Calm     71% 0.00 in 0.0 W/m2 CLR
20:00 52.0 °F 42.9 °F 30.36 in Calm     71% 0.00 in 0.0 W/m2 CLR
20:10 50.0 °F 42.7 °F 30.37 in Calm     76% 0.00 in 0.0 W/m2 CLR
20:25 50.0 °F 42.7 °F 30.37 in Calm     76% 0.00 in 0.0 W/m2 CLR
20:30 50.0 °F 42.7 °F 30.37 in Calm     76% 0.00 in 0.0 W/m2 CLR
20:40 50.0 °F 42.7 °F 30.37 in Calm     76% 0.00 in 0.0 W/m2 CLR
20:45 50.0 °F 42.7 °F 30.37 in Calm     76% 0.00 in 0.0 W/m2 CLR
20:55 50.0 °F 42.7 °F 30.37 in Calm     76% 0.00 in 0.0 W/m2 CLR
21:00 50.0 °F 42.7 °F 30.37 in Calm     76% 0.00 in 0.0 W/m2 CLR
21:10 48.0 °F 41.8 °F 30.38 in Calm     79% 0.00 in 0.0 W/m2 CLR
21:15 48.0 °F 41.8 °F 30.38 in Calm     79% 0.00 in 0.0 W/m2 CLR
21:25 48.0 °F 41.8 °F 30.38 in Calm     79% 0.00 in 0.0 W/m2 CLR
21:30 48.0 °F 41.8 °F 30.38 in Calm     79% 0.00 in 0.0 W/m2 CLR
21:45 48.0 °F 41.8 °F 30.38 in Calm     79% 0.00 in 0.0 W/m2 CLR
21:55 48.0 °F 41.8 °F 30.38 in Calm     79% 0.00 in 0.0 W/m2 CLR
22:00 48.0 °F 41.8 °F 30.38 in Calm     79% 0.00 in 0.0 W/m2 CLR
22:15 46.9 °F 42.0 °F 30.38 in Calm     83% 0.00 in 0.0 W/m2 CLR
22:25 46.9 °F 42.0 °F 30.38 in Calm     83% 0.00 in 0.0 W/m2 CLR
22:30 46.9 °F 42.0 °F 30.38 in Calm     83% 0.00 in 0.0 W/m2 CLR
22:40 46.9 °F 42.0 °F 30.38 in Calm     83% 0.00 in 0.0 W/m2 CLR
22:45 46.9 °F 42.0 °F 30.38 in Calm     83% 0.00 in 0.0 W/m2 CLR
22:55 46.9 °F 42.0 °F 30.38 in Calm     83% 0.00 in 0.0 W/m2 CLR
23:00 46.9 °F 42.0 °F 30.38 in Calm     83% 0.00 in 0.0 W/m2 CLR
23:10 46.0 °F 42.7 °F 30.37 in Calm     88% 0.00 in 0.0 W/m2 FEW
23:15 46.0 °F 42.7 °F 30.37 in Calm     88% 0.00 in 0.0 W/m2 FEW
23:25 46.0 °F 42.7 °F 30.37 in Calm     88% 0.00 in 0.0 W/m2 FEW
23:30 46.0 °F 42.7 °F 30.37 in Calm     88% 0.00 in 0.0 W/m2 FEW
23:50 46.0 °F 42.7 °F 30.37 in Calm     88% 0.00 in 0.0 W/m2 FEW
23:55 46.0 °F 42.7 °F 30.37 in Calm     88% 0.00 in 0.0 W/m2 FEW
Lake Mary, FL, USA
Compliments of Weather Underground - 1.5 mb